Terminal Aerodrome Forecast
Issued by NWS Duluth, MN

Home | Current Version | Previous Version | Text Only | Print | Product List | Glossary On
Versions: 1 2 3 4 5 6 7 8 9 10 11 12 13 14 15 16 17 18 19 20
286
FTUS43 KDLH 210520
TAFINL
TAF
KINL 210520Z 2106/2206 00000KT P6SM SKC
     FM211400 18006KT P6SM SCT040
     FM211900 17008G15KT P6SM VCSH SCT050 BKN100
     FM220100 15007KT P6SM VCSH SCT025 OVC050=

USA.gov is the U.S. government's official web portal to all federal, state and local government web resources and services.